createdAt,value
2022-11-23T00:03:30.900Z,3.92
2022-11-23T00:18:32.718Z,3.88
2022-11-23T00:33:35.223Z,3.92
2022-11-23T00:48:37.633Z,3.98
2022-11-23T01:03:43.634Z,3.86
2022-11-23T01:18:45.419Z,3.69
2022-11-23T01:33:47.996Z,3.63
2022-11-23T01:49:00.918Z,3.90
2022-11-23T02:04:03.519Z,4.01
2022-11-23T02:19:12.826Z,3.90
2022-11-23T02:34:14.660Z,4.09
2022-11-23T02:49:16.431Z,4.08
2022-11-23T03:04:21.850Z,4.16
2022-11-23T03:19:28.414Z,4.16
2022-11-23T03:34:30.273Z,4.01
2022-11-23T03:49:32.253Z,3.96
2022-11-23T04:04:35.445Z,4.05
2022-11-23T04:19:37.293Z,4.05
2022-11-23T04:34:39.349Z,3.92
2022-11-23T04:49:41.233Z,3.76
2022-11-23T05:04:43.205Z,3.71
2022-11-23T05:19:45.494Z,3.57
2022-11-23T05:34:47.312Z,3.74
2022-11-23T05:49:49.696Z,4.05
2022-11-23T06:04:51.807Z,4.36
2022-11-23T06:19:53.613Z,4.25
2022-11-23T06:35:00.550Z,4.22
2022-11-23T06:50:02.997Z,4.16
2022-11-23T07:05:05.335Z,4.33
2022-11-23T07:20:09.665Z,4.26
2022-11-23T07:35:12.982Z,4.33
2022-11-23T07:50:15.131Z,4.73
2022-11-23T08:05:18.015Z,5.23
2022-11-23T08:20:19.875Z,5.46
2022-11-23T08:35:22.123Z,5.53
2022-11-23T08:50:24.290Z,5.80
2022-11-23T09:05:27.667Z,5.59
2022-11-23T09:20:30.524Z,5.55
2022-11-23T09:35:32.386Z,5.58
2022-11-23T09:50:48.889Z,5.71
2022-11-23T10:06:12.077Z,6.08
2022-11-23T10:21:19.726Z,7.36
2022-11-23T10:36:24.584Z,7.87
2022-11-23T10:51:33.124Z,10.79
2022-11-23T11:06:36.443Z,11.67
2022-11-23T11:21:42.071Z,13.01
2022-11-23T11:36:50.786Z,13.34
2022-11-23T11:52:19.354Z,14.46
2022-11-23T12:07:56.391Z,13.43
2022-11-23T12:23:16.787Z,14.04
2022-11-23T16:41:12.225Z,5.03
2022-11-23T16:56:20.893Z,4.81
2022-11-23T17:11:25.453Z,4.73
2022-11-23T17:26:48.527Z,4.61
2022-11-23T17:41:50.591Z,4.59
2022-11-23T17:56:52.747Z,4.61
2022-11-23T18:11:54.601Z,4.61
2022-11-23T18:43:16.042Z,4.49
2022-11-23T18:58:18.456Z,4.58
2022-11-23T19:13:21.156Z,4.44
2022-11-23T19:28:23.003Z,4.34
2022-11-23T19:43:24.901Z,4.27
2022-11-23T19:58:27.655Z,3.85
2022-11-23T20:13:29.417Z,3.77
2022-11-23T20:28:31.201Z,3.80
2022-11-23T20:43:33.282Z,4.02
2022-11-23T20:58:35.692Z,4.10
2022-11-23T21:13:56.151Z,4.28
2022-11-23T21:28:58.464Z,4.50
2022-11-23T21:44:00.542Z,4.45
2022-11-23T21:59:02.522Z,4.56
2022-11-23T22:14:07.435Z,4.43
2022-11-23T22:29:09.963Z,4.72
2022-11-23T22:44:12.139Z,4.84
2022-11-23T22:59:13.957Z,5.11
2022-11-23T23:14:16.247Z,5.36
2022-11-23T23:29:18.239Z,5.46
2022-11-23T23:44:20.399Z,5.47
2022-11-23T23:59:23.797Z,5.57
